sensor_id;sensor_type;location;lat;lon;timestamp;pressure;altitude;pressure_sealevel;temperature
69590;BMP180;56792;50.644;17.984;2023-07-02T00:00:20;98602.00;;;16.20
69590;BMP180;56792;50.644;17.984;2023-07-02T00:02:49;98601.60;;;16.20
69590;BMP180;56792;50.644;17.984;2023-07-02T00:05:17;98603.60;;;16.20
69590;BMP180;56792;50.644;17.984;2023-07-02T00:07:45;98601.80;;;16.22
69590;BMP180;56792;50.644;17.984;2023-07-02T00:10:14;98605.00;;;16.24
69590;BMP180;56792;50.644;17.984;2023-07-02T00:12:42;98605.80;;;16.30
69590;BMP180;56792;50.644;17.984;2023-07-02T00:15:12;98605.60;;;16.30
69590;BMP180;56792;50.644;17.984;2023-07-02T00:17:40;98606.40;;;16.30
69590;BMP180;56792;50.644;17.984;2023-07-02T00:20:11;98605.80;;;16.30
69590;BMP180;56792;50.644;17.984;2023-07-02T00:22:42;98607.80;;;16.40
69590;BMP180;56792;50.644;17.984;2023-07-02T00:25:14;98605.00;;;16.40
69590;BMP180;56792;50.644;17.984;2023-07-02T00:27:42;98609.00;;;16.40
69590;BMP180;56792;50.644;17.984;2023-07-02T00:30:12;98610.20;;;16.40
69590;BMP180;56792;50.644;17.984;2023-07-02T00:32:41;98612.40;;;16.40
69590;BMP180;56792;50.644;17.984;2023-07-02T00:35:09;98607.00;;;16.40
69590;BMP180;56792;50.644;17.984;2023-07-02T00:37:37;98606.40;;;16.40
69590;BMP180;56792;50.644;17.984;2023-07-02T00:40:09;98606.40;;;16.40
69590;BMP180;56792;50.644;17.984;2023-07-02T00:42:37;98605.20;;;16.48
69590;BMP180;56792;50.644;17.984;2023-07-02T00:45:09;98599.40;;;16.48
69590;BMP180;56792;50.644;17.984;2023-07-02T00:47:38;98596.00;;;16.50
69590;BMP180;56792;50.644;17.984;2023-07-02T00:50:08;98591.20;;;16.50
69590;BMP180;56792;50.644;17.984;2023-07-02T00:52:37;98588.60;;;16.50
69590;BMP180;56792;50.644;17.984;2023-07-02T00:55:08;98589.80;;;16.50
69590;BMP180;56792;50.644;17.984;2023-07-02T00:57:36;98590.60;;;16.48
69590;BMP180;56792;50.644;17.984;2023-07-02T01:00:07;98589.40;;;16.50
69590;BMP180;56792;50.644;17.984;2023-07-02T01:02:36;98591.80;;;16.48
69590;BMP180;56792;50.644;17.984;2023-07-02T01:05:06;98591.20;;;16.40
69590;BMP180;56792;50.644;17.984;2023-07-02T01:07:35;98590.60;;;16.40
69590;BMP180;56792;50.644;17.984;2023-07-02T01:10:04;98590.20;;;16.40
69590;BMP180;56792;50.644;17.984;2023-07-02T01:12:35;98587.20;;;16.40
69590;BMP180;56792;50.644;17.984;2023-07-02T01:15:08;98585.60;;;16.40
69590;BMP180;56792;50.644;17.984;2023-07-02T01:17:36;98585.40;;;16.38
69590;BMP180;56792;50.644;17.984;2023-07-02T01:20:12;98583.80;;;16.32
69590;BMP180;56792;50.644;17.984;2023-07-02T01:22:41;98585.60;;;16.30
69590;BMP180;56792;50.644;17.984;2023-07-02T01:25:10;98583.20;;;16.30
69590;BMP180;56792;50.644;17.984;2023-07-02T01:27:38;98578.40;;;16.22
69590;BMP180;56792;50.644;17.984;2023-07-02T01:30:10;98581.80;;;16.20
69590;BMP180;56792;50.644;17.984;2023-07-02T01:32:39;98583.80;;;16.20
69590;BMP180;56792;50.644;17.984;2023-07-02T01:35:09;98585.20;;;16.20
69590;BMP180;56792;50.644;17.984;2023-07-02T01:37:38;98582.00;;;16.16
69590;BMP180;56792;50.644;17.984;2023-07-02T01:40:09;98584.60;;;16.10
69590;BMP180;56792;50.644;17.984;2023-07-02T01:42:38;98586.80;;;16.10
69590;BMP180;56792;50.644;17.984;2023-07-02T01:45:09;98585.20;;;16.10
69590;BMP180;56792;50.644;17.984;2023-07-02T01:47:37;98586.40;;;16.10
69590;BMP180;56792;50.644;17.984;2023-07-02T01:50:08;98587.40;;;16.10
69590;BMP180;56792;50.644;17.984;2023-07-02T01:52:36;98591.60;;;16.10
69590;BMP180;56792;50.644;17.984;2023-07-02T01:55:06;98592.00;;;16.10
69590;BMP180;56792;50.644;17.984;2023-07-02T01:57:34;98592.60;;;16.10
69590;BMP180;56792;50.644;17.984;2023-07-02T02:00:04;98590.40;;;16.10
69590;BMP180;56792;50.644;17.984;2023-07-02T02:02:43;98592.60;;;16.10
69590;BMP180;56792;50.644;17.984;2023-07-02T02:05:11;98598.20;;;16.10
69590;BMP180;56792;50.644;17.984;2023-07-02T02:07:40;98604.00;;;16.10
69590;BMP180;56792;50.644;17.984;2023-07-02T02:10:10;98614.80;;;16.10
69590;BMP180;56792;50.644;17.984;2023-07-02T02:12:39;98615.40;;;16.10
69590;BMP180;56792;50.644;17.984;2023-07-02T02:15:09;98626.80;;;16.10
69590;BMP180;56792;50.644;17.984;2023-07-02T02:17:41;98626.00;;;16.10
69590;BMP180;56792;50.644;17.984;2023-07-02T02:20:12;98624.40;;;16.10
69590;BMP180;56792;50.644;17.984;2023-07-02T02:22:40;98622.80;;;16.10
69590;BMP180;56792;50.644;17.984;2023-07-02T02:25:09;98627.80;;;16.10
69590;BMP180;56792;50.644;17.984;2023-07-02T02:27:38;98621.00;;;16.18
69590;BMP180;56792;50.644;17.984;2023-07-02T02:30:09;98625.00;;;16.20
69590;BMP180;56792;50.644;17.984;2023-07-02T02:32:37;98625.80;;;16.14
69590;BMP180;56792;50.644;17.984;2023-07-02T02:35:08;98627.00;;;16.18
69590;BMP180;56792;50.644;17.984;2023-07-02T02:37:39;98627.20;;;16.10
69590;BMP180;56792;50.644;17.984;2023-07-02T02:40:10;98627.40;;;16.10
69590;BMP180;56792;50.644;17.984;2023-07-02T02:42:39;98625.00;;;16.10
69590;BMP180;56792;50.644;17.984;2023-07-02T02:45:10;98625.40;;;16.04
69590;BMP180;56792;50.644;17.984;2023-07-02T02:47:38;98625.60;;;16.10
69590;BMP180;56792;50.644;17.984;2023-07-02T02:50:09;98620.40;;;16.10
69590;BMP180;56792;50.644;17.984;2023-07-02T02:52:41;98622.80;;;16.10
69590;BMP180;56792;50.644;17.984;2023-07-02T02:55:11;98628.60;;;16.10
69590;BMP180;56792;50.644;17.984;2023-07-02T02:57:40;98627.80;;;16.10
69590;BMP180;56792;50.644;17.984;2023-07-02T03:00:11;98627.60;;;16.10
69590;BMP180;56792;50.644;17.984;2023-07-02T03:02:39;98628.60;;;16.10
69590;BMP180;56792;50.644;17.984;2023-07-02T03:05:09;98637.60;;;16.18
69590;BMP180;56792;50.644;17.984;2023-07-02T03:07:37;98636.60;;;16.20
69590;BMP180;56792;50.644;17.984;2023-07-02T03:10:08;98633.60;;;16.20
69590;BMP180;56792;50.644;17.984;2023-07-02T03:12:36;98628.80;;;16.20
69590;BMP180;56792;50.644;17.984;2023-07-02T03:15:07;98631.20;;;16.20
69590;BMP180;56792;50.644;17.984;2023-07-02T03:17:37;98632.00;;;16.26
69590;BMP180;56792;50.644;17.984;2023-07-02T03:20:08;98634.40;;;16.30
69590;BMP180;56792;50.644;17.984;2023-07-02T03:22:37;98637.80;;;16.30
69590;BMP180;56792;50.644;17.984;2023-07-02T03:25:06;98631.00;;;16.30
69590;BMP180;56792;50.644;17.984;2023-07-02T03:27:35;98632.40;;;16.30
69590;BMP180;56792;50.644;17.984;2023-07-02T03:30:05;98636.20;;;16.40
69590;BMP180;56792;50.644;17.984;2023-07-02T03:32:33;98641.20;;;16.40
69590;BMP180;56792;50.644;17.984;2023-07-02T03:35:02;98646.40;;;16.50
69590;BMP180;56792;50.644;17.984;2023-07-02T03:37:30;98647.80;;;16.50
69590;BMP180;56792;50.644;17.984;2023-07-02T03:39:58;98645.40;;;16.50
69590;BMP180;56792;50.644;17.984;2023-07-02T03:42:26;98647.20;;;16.60
69590;BMP180;56792;50.644;17.984;2023-07-02T03:44:55;98651.60;;;16.60
69590;BMP180;56792;50.644;17.984;2023-07-02T03:47:23;98650.00;;;16.60
69590;BMP180;56792;50.644;17.984;2023-07-02T03:49:51;98653.40;;;16.60
69590;BMP180;56792;50.644;17.984;2023-07-02T03:52:19;98651.60;;;16.70
69590;BMP180;56792;50.644;17.984;2023-07-02T03:54:48;98655.20;;;16.70
69590;BMP180;56792;50.644;17.984;2023-07-02T03:57:16;98654.00;;;16.78
69590;BMP180;56792;50.644;17.984;2023-07-02T03:59:44;98654.40;;;16.80
69590;BMP180;56792;50.644;17.984;2023-07-02T04:02:12;98656.00;;;16.80
69590;BMP180;56792;50.644;17.984;2023-07-02T04:04:41;98653.60;;;16.90
69590;BMP180;56792;50.644;17.984;2023-07-02T04:07:09;98657.80;;;16.90
69590;BMP180;56792;50.644;17.984;2023-07-02T04:09:37;98656.80;;;17.00
69590;BMP180;56792;50.644;17.984;2023-07-02T04:12:07;98656.20;;;17.10
69590;BMP180;56792;50.644;17.984;2023-07-02T04:14:36;98652.80;;;17.20
69590;BMP180;56792;50.644;17.984;2023-07-02T04:17:05;98658.20;;;17.20
69590;BMP180;56792;50.644;17.984;2023-07-02T04:19:34;98661.80;;;17.30
69590;BMP180;56792;50.644;17.984;2023-07-02T04:22:02;98664.00;;;17.40
69590;BMP180;56792;50.644;17.984;2023-07-02T04:24:30;98667.80;;;17.50
69590;BMP180;56792;50.644;17.984;2023-07-02T04:26:58;98669.00;;;17.50
69590;BMP180;56792;50.644;17.984;2023-07-02T04:29:27;98665.60;;;17.60
69590;BMP180;56792;50.644;17.984;2023-07-02T04:31:55;98669.80;;;17.60
69590;BMP180;56792;50.644;17.984;2023-07-02T04:34:24;98673.80;;;17.70
69590;BMP180;56792;50.644;17.984;2023-07-02T04:36:52;98676.80;;;17.70
69590;BMP180;56792;50.644;17.984;2023-07-02T04:39:21;98679.20;;;17.80
69590;BMP180;56792;50.644;17.984;2023-07-02T04:41:50;98681.60;;;17.90
69590;BMP180;56792;50.644;17.984;2023-07-02T04:44:20;98684.60;;;18.00
69590;BMP180;56792;50.644;17.984;2023-07-02T04:46:58;98687.00;;;18.04
69590;BMP180;56792;50.644;17.984;2023-07-02T04:49:27;98691.20;;;18.10
69590;BMP180;56792;50.644;17.984;2023-07-02T04:51:55;98690.80;;;18.20
69590;BMP180;56792;50.644;17.984;2023-07-02T04:54:23;98688.20;;;18.30
69590;BMP180;56792;50.644;17.984;2023-07-02T04:56:52;98685.40;;;18.40
69590;BMP180;56792;50.644;17.984;2023-07-02T04:59:22;98686.00;;;18.50
69590;BMP180;56792;50.644;17.984;2023-07-02T05:01:50;98690.40;;;18.60
69590;BMP180;56792;50.644;17.984;2023-07-02T05:04:18;98691.80;;;18.70
69590;BMP180;56792;50.644;17.984;2023-07-02T05:06:46;98692.60;;;18.70
69590;BMP180;56792;50.644;17.984;2023-07-02T05:09:15;98693.40;;;18.80
69590;BMP180;56792;50.644;17.984;2023-07-02T05:11:43;98693.80;;;18.90
69590;BMP180;56792;50.644;17.984;2023-07-02T05:14:11;98695.40;;;19.00
69590;BMP180;56792;50.644;17.984;2023-07-02T05:16:39;98693.80;;;19.06
69590;BMP180;56792;50.644;17.984;2023-07-02T05:19:08;98698.00;;;19.10
69590;BMP180;56792;50.644;17.984;2023-07-02T05:21:36;98699.00;;;19.20
69590;BMP180;56792;50.644;17.984;2023-07-02T05:24:05;98701.00;;;19.20
69590;BMP180;56792;50.644;17.984;2023-07-02T05:26:34;98702.80;;;19.20
69590;BMP180;56792;50.644;17.984;2023-07-02T05:29:03;98705.20;;;19.20
69590;BMP180;56792;50.644;17.984;2023-07-02T05:31:32;98708.00;;;19.24
69590;BMP180;56792;50.644;17.984;2023-07-02T05:34:02;98707.40;;;19.30
69590;BMP180;56792;50.644;17.984;2023-07-02T05:36:30;98707.80;;;19.30
69590;BMP180;56792;50.644;17.984;2023-07-02T05:38:58;98708.40;;;19.38
69590;BMP180;56792;50.644;17.984;2023-07-02T05:41:26;98711.20;;;19.40
69590;BMP180;56792;50.644;17.984;2023-07-02T05:43:58;98712.20;;;19.50
69590;BMP180;56792;50.644;17.984;2023-07-02T05:46:26;98719.20;;;19.50
69590;BMP180;56792;50.644;17.984;2023-07-02T05:48:54;98719.60;;;19.50
69590;BMP180;56792;50.644;17.984;2023-07-02T05:51:24;98730.00;;;19.50
69590;BMP180;56792;50.644;17.984;2023-07-02T05:53:53;98730.60;;;19.50
69590;BMP180;56792;50.644;17.984;2023-07-02T05:56:21;98733.00;;;19.46
69590;BMP180;56792;50.644;17.984;2023-07-02T05:58:50;98736.00;;;19.42
69590;BMP180;56792;50.644;17.984;2023-07-02T06:01:18;98738.20;;;19.42
69590;BMP180;56792;50.644;17.984;2023-07-02T06:03:49;98740.80;;;19.40
69590;BMP180;56792;50.644;17.984;2023-07-02T06:06:18;98745.80;;;19.40
69590;BMP180;56792;50.644;17.984;2023-07-02T06:08:46;98743.40;;;19.50
69590;BMP180;56792;50.644;17.984;2023-07-02T06:11:14;98750.20;;;19.50
69590;BMP180;56792;50.644;17.984;2023-07-02T06:13:42;98755.20;;;19.50
69590;BMP180;56792;50.644;17.984;2023-07-02T06:16:11;98764.60;;;19.40
69590;BMP180;56792;50.644;17.984;2023-07-02T06:18:39;98765.60;;;19.30
69590;BMP180;56792;50.644;17.984;2023-07-02T06:21:07;98764.40;;;19.20
69590;BMP180;56792;50.644;17.984;2023-07-02T06:23:42;98766.60;;;19.10
69590;BMP180;56792;50.644;17.984;2023-07-02T06:26:11;98767.60;;;19.10
69590;BMP180;56792;50.644;17.984;2023-07-02T06:28:40;98765.20;;;19.10
69590;BMP180;56792;50.644;17.984;2023-07-02T06:31:08;98763.60;;;19.20
69590;BMP180;56792;50.644;17.984;2023-07-02T06:33:39;98764.60;;;19.20
69590;BMP180;56792;50.644;17.984;2023-07-02T06:36:09;98762.80;;;19.24
69590;BMP180;56792;50.644;17.984;2023-07-02T06:38:37;98763.60;;;19.20
69590;BMP180;56792;50.644;17.984;2023-07-02T06:41:05;98762.60;;;19.20
69590;BMP180;56792;50.644;17.984;2023-07-02T06:43:34;98768.00;;;19.20
69590;BMP180;56792;50.644;17.984;2023-07-02T06:46:02;98769.00;;;19.20
69590;BMP180;56792;50.644;17.984;2023-07-02T06:48:30;98773.00;;;19.20
69590;BMP180;56792;50.644;17.984;2023-07-02T06:50:58;98773.00;;;19.10
69590;BMP180;56792;50.644;17.984;2023-07-02T06:53:27;98780.60;;;19.00
69590;BMP180;56792;50.644;17.984;2023-07-02T06:55:55;98782.60;;;19.00
69590;BMP180;56792;50.644;17.984;2023-07-02T06:58:23;98781.60;;;19.00
69590;BMP180;56792;50.644;17.984;2023-07-02T07:00:51;98784.00;;;19.00
69590;BMP180;56792;50.644;17.984;2023-07-02T07:03:19;98787.40;;;19.10
69590;BMP180;56792;50.644;17.984;2023-07-02T07:05:48;98790.00;;;19.10
69590;BMP180;56792;50.644;17.984;2023-07-02T07:08:16;98789.80;;;19.10
69590;BMP180;56792;50.644;17.984;2023-07-02T07:10:44;98788.20;;;19.10
69590;BMP180;56792;50.644;17.984;2023-07-02T07:13:13;98789.20;;;19.24
69590;BMP180;56792;50.644;17.984;2023-07-02T07:15:42;98785.00;;;19.36
69590;BMP180;56792;50.644;17.984;2023-07-02T07:18:11;98788.00;;;19.40
69590;BMP180;56792;50.644;17.984;2023-07-02T07:20:42;98792.40;;;19.50
69590;BMP180;56792;50.644;17.984;2023-07-02T07:23:11;98801.00;;;19.52
69590;BMP180;56792;50.644;17.984;2023-07-02T07:25:39;98795.60;;;19.60
69590;BMP180;56792;50.644;17.984;2023-07-02T07:28:07;98798.40;;;19.60
69590;BMP180;56792;50.644;17.984;2023-07-02T07:30:39;98798.80;;;19.70
69590;BMP180;56792;50.644;17.984;2023-07-02T07:33:07;98802.20;;;19.80
69590;BMP180;56792;50.644;17.984;2023-07-02T07:35:36;98804.00;;;19.80
69590;BMP180;56792;50.644;17.984;2023-07-02T07:38:04;98802.00;;;19.80
69590;BMP180;56792;50.644;17.984;2023-07-02T07:40:32;98796.00;;;19.80
69590;BMP180;56792;50.644;17.984;2023-07-02T07:43:01;98805.60;;;19.70
69590;BMP180;56792;50.644;17.984;2023-07-02T07:45:29;98800.80;;;19.60
69590;BMP180;56792;50.644;17.984;2023-07-02T07:47:57;98802.40;;;19.60
69590;BMP180;56792;50.644;17.984;2023-07-02T07:50:25;98799.00;;;19.60
69590;BMP180;56792;50.644;17.984;2023-07-02T07:52:53;98799.00;;;19.60
69590;BMP180;56792;50.644;17.984;2023-07-02T07:55:22;98805.40;;;19.70
69590;BMP180;56792;50.644;17.984;2023-07-02T07:57:50;98808.40;;;19.80
69590;BMP180;56792;50.644;17.984;2023-07-02T08:00:20;98813.60;;;19.90
69590;BMP180;56792;50.644;17.984;2023-07-02T08:02:48;98809.60;;;19.80
69590;BMP180;56792;50.644;17.984;2023-07-02T08:05:16;98814.40;;;19.80
69590;BMP180;56792;50.644;17.984;2023-07-02T08:07:45;98810.40;;;19.70
69590;BMP180;56792;50.644;17.984;2023-07-02T08:10:13;98809.40;;;19.70
69590;BMP180;56792;50.644;17.984;2023-07-02T08:12:41;98815.80;;;19.86
69590;BMP180;56792;50.644;17.984;2023-07-02T08:15:10;98810.00;;;20.10
69590;BMP180;56792;50.644;17.984;2023-07-02T08:17:38;98809.00;;;20.40
69590;BMP180;56792;50.644;17.984;2023-07-02T08:20:09;98811.00;;;20.80
69590;BMP180;56792;50.644;17.984;2023-07-02T08:22:39;98816.20;;;21.00
69590;BMP180;56792;50.644;17.984;2023-07-02T08:25:09;98819.60;;;21.10
69590;BMP180;56792;50.644;17.984;2023-07-02T08:27:37;98818.00;;;21.10
69590;BMP180;56792;50.644;17.984;2023-07-02T08:30:08;98815.40;;;21.04
69590;BMP180;56792;50.644;17.984;2023-07-02T08:32:36;98820.20;;;21.10
69590;BMP180;56792;50.644;17.984;2023-07-02T08:35:05;98817.20;;;21.20
69590;BMP180;56792;50.644;17.984;2023-07-02T08:37:33;98813.80;;;21.30
69590;BMP180;56792;50.644;17.984;2023-07-02T08:40:02;98809.40;;;21.40
69590;BMP180;56792;50.644;17.984;2023-07-02T08:42:32;98814.60;;;21.64
69590;BMP180;56792;50.644;17.984;2023-07-02T08:45:02;98810.20;;;21.94
69590;BMP180;56792;50.644;17.984;2023-07-02T08:47:30;98815.60;;;22.34
69590;BMP180;56792;50.644;17.984;2023-07-02T08:49:59;98814.20;;;22.80
69590;BMP180;56792;50.644;17.984;2023-07-02T08:52:27;98813.60;;;23.08
69590;BMP180;56792;50.644;17.984;2023-07-02T08:54:55;98814.40;;;23.48
69590;BMP180;56792;50.644;17.984;2023-07-02T08:57:23;98820.20;;;23.80
69590;BMP180;56792;50.644;17.984;2023-07-02T08:59:52;98815.00;;;24.20
69590;BMP180;56792;50.644;17.984;2023-07-02T09:02:31;98819.40;;;24.62
69590;BMP180;56792;50.644;17.984;2023-07-02T09:05:01;98821.80;;;25.06
69590;BMP180;56792;50.644;17.984;2023-07-02T09:07:29;98816.00;;;25.00
69590;BMP180;56792;50.644;17.984;2023-07-02T09:09:57;98811.40;;;24.92
69590;BMP180;56792;50.644;17.984;2023-07-02T09:12:27;98816.60;;;25.00
69590;BMP180;56792;50.644;17.984;2023-07-02T09:14:57;98815.40;;;25.10
69590;BMP180;56792;50.644;17.984;2023-07-02T09:17:31;98811.00;;;25.00
69590;BMP180;56792;50.644;17.984;2023-07-02T09:20:02;98813.60;;;24.76
69590;BMP180;56792;50.644;17.984;2023-07-02T09:22:32;98811.40;;;24.38
69590;BMP180;56792;50.644;17.984;2023-07-02T09:25:01;98815.40;;;24.20
69590;BMP180;56792;50.644;17.984;2023-07-02T09:27:37;98813.60;;;24.08
69590;BMP180;56792;50.644;17.984;2023-07-02T09:30:13;98815.00;;;24.20
69590;BMP180;56792;50.644;17.984;2023-07-02T09:32:43;98816.40;;;24.30
69590;BMP180;56792;50.644;17.984;2023-07-02T09:35:12;98813.60;;;24.40
69590;BMP180;56792;50.644;17.984;2023-07-02T09:37:43;98809.40;;;24.64
69590;BMP180;56792;50.644;17.984;2023-07-02T09:40:12;98799.60;;;24.96
69590;BMP180;56792;50.644;17.984;2023-07-02T09:42:40;98798.60;;;25.20
69590;BMP180;56792;50.644;17.984;2023-07-02T09:45:12;98790.40;;;25.20
69590;BMP180;56792;50.644;17.984;2023-07-02T09:47:46;98795.20;;;25.08
69590;BMP180;56792;50.644;17.984;2023-07-02T09:50:16;98786.00;;;24.86
69590;BMP180;56792;50.644;17.984;2023-07-02T09:52:46;98779.80;;;24.70
69590;BMP180;56792;50.644;17.984;2023-07-02T09:55:16;98783.80;;;24.80
69590;BMP180;56792;50.644;17.984;2023-07-02T09:57:45;98785.40;;;24.90
69590;BMP180;56792;50.644;17.984;2023-07-02T10:00:15;98778.60;;;25.20
69590;BMP180;56792;50.644;17.984;2023-07-02T10:02:49;98785.20;;;25.50
69590;BMP180;56792;50.644;17.984;2023-07-02T10:05:28;98778.80;;;25.62
69590;BMP180;56792;50.644;17.984;2023-07-02T10:07:57;98767.40;;;25.40
69590;BMP180;56792;50.644;17.984;2023-07-02T10:10:30;98763.80;;;25.20
69590;BMP180;56792;50.644;17.984;2023-07-02T10:12:59;98760.60;;;25.10
69590;BMP180;56792;50.644;17.984;2023-07-02T10:15:29;98751.80;;;24.90
69590;BMP180;56792;50.644;17.984;2023-07-02T10:18:00;98751.60;;;24.70
69590;BMP180;56792;50.644;17.984;2023-07-02T10:20:36;98748.00;;;24.38
69590;BMP180;56792;50.644;17.984;2023-07-02T10:23:06;98756.60;;;24.10
69590;BMP180;56792;50.644;17.984;2023-07-02T10:25:36;98816.40;;;23.80
69590;BMP180;56792;50.644;17.984;2023-07-02T10:28:17;98877.00;;;23.02
69590;BMP180;56792;50.644;17.984;2023-07-02T10:30:47;98865.40;;;22.12
69590;BMP180;56792;50.644;17.984;2023-07-02T10:33:17;98870.00;;;21.60
69590;BMP180;56792;50.644;17.984;2023-07-02T10:35:49;98871.40;;;21.24
69590;BMP180;56792;50.644;17.984;2023-07-02T10:38:22;98875.20;;;20.90
69590;BMP180;56792;50.644;17.984;2023-07-02T10:40:56;98872.40;;;20.74
69590;BMP180;56792;50.644;17.984;2023-07-02T10:43:28;98879.00;;;20.60
69590;BMP180;56792;50.644;17.984;2023-07-02T10:45:57;98887.80;;;20.40
69590;BMP180;56792;50.644;17.984;2023-07-02T10:48:27;98893.20;;;20.30
69590;BMP180;56792;50.644;17.984;2023-07-02T10:50:55;98885.60;;;20.40
69590;BMP180;56792;50.644;17.984;2023-07-02T10:53:24;98876.20;;;20.56
69590;BMP180;56792;50.644;17.984;2023-07-02T10:55:56;98872.00;;;20.70
69590;BMP180;56792;50.644;17.984;2023-07-02T10:58:25;98863.80;;;21.06
69590;BMP180;56792;50.644;17.984;2023-07-02T11:00:54;98861.40;;;21.70
69590;BMP180;56792;50.644;17.984;2023-07-02T11:03:24;98865.60;;;22.10
69590;BMP180;56792;50.644;17.984;2023-07-02T11:05:53;98869.00;;;22.40
69590;BMP180;56792;50.644;17.984;2023-07-02T11:08:21;98868.40;;;22.74
69590;BMP180;56792;50.644;17.984;2023-07-02T11:10:51;98869.20;;;22.98
69590;BMP180;56792;50.644;17.984;2023-07-02T11:13:31;98872.00;;;23.42
69590;BMP180;56792;50.644;17.984;2023-07-02T11:15:59;98874.40;;;23.84
69590;BMP180;56792;50.644;17.984;2023-07-02T11:18:31;98873.60;;;24.30
69590;BMP180;56792;50.644;17.984;2023-07-02T11:21:11;98873.40;;;24.20
69590;BMP180;56792;50.644;17.984;2023-07-02T11:23:39;98884.60;;;24.20
69590;BMP180;56792;50.644;17.984;2023-07-02T11:26:07;98885.40;;;24.00
69590;BMP180;56792;50.644;17.984;2023-07-02T11:28:36;98884.40;;;23.90
69590;BMP180;56792;50.644;17.984;2023-07-02T11:31:04;98889.40;;;23.90
69590;BMP180;56792;50.644;17.984;2023-07-02T11:33:36;98884.60;;;24.10
69590;BMP180;56792;50.644;17.984;2023-07-02T11:36:06;98887.00;;;24.30
69590;BMP180;56792;50.644;17.984;2023-07-02T11:38:37;98889.80;;;24.50
69590;BMP180;56792;50.644;17.984;2023-07-02T11:41:05;98888.80;;;24.50
69590;BMP180;56792;50.644;17.984;2023-07-02T11:43:33;98890.00;;;24.72
69590;BMP180;56792;50.644;17.984;2023-07-02T11:46:02;98886.80;;;25.00
69590;BMP180;56792;50.644;17.984;2023-07-02T11:48:30;98887.20;;;24.64
69590;BMP180;56792;50.644;17.984;2023-07-02T11:50:58;98890.20;;;24.18
69590;BMP180;56792;50.644;17.984;2023-07-02T11:53:27;98887.80;;;23.92
69590;BMP180;56792;50.644;17.984;2023-07-02T11:55:55;98887.40;;;23.60
69590;BMP180;56792;50.644;17.984;2023-07-02T11:58:23;98885.00;;;23.42
69590;BMP180;56792;50.644;17.984;2023-07-02T12:00:51;98885.80;;;23.40
69590;BMP180;56792;50.644;17.984;2023-07-02T12:03:20;98887.40;;;23.30
69590;BMP180;56792;50.644;17.984;2023-07-02T12:05:48;98887.80;;;23.40
69590;BMP180;56792;50.644;17.984;2023-07-02T12:08:16;98879.60;;;23.70
69590;BMP180;56792;50.644;17.984;2023-07-02T12:10:44;98881.00;;;23.80
69590;BMP180;56792;50.644;17.984;2023-07-02T12:13:13;98878.20;;;23.80
69590;BMP180;56792;50.644;17.984;2023-07-02T12:15:41;98878.80;;;23.60
69590;BMP180;56792;50.644;17.984;2023-07-02T12:18:10;98879.80;;;23.60
69590;BMP180;56792;50.644;17.984;2023-07-02T12:20:39;98892.60;;;23.50
69590;BMP180;56792;50.644;17.984;2023-07-02T12:23:07;98897.80;;;23.50
69590;BMP180;56792;50.644;17.984;2023-07-02T12:25:37;98899.80;;;23.50
69590;BMP180;56792;50.644;17.984;2023-07-02T12:28:05;98899.20;;;23.54
69590;BMP180;56792;50.644;17.984;2023-07-02T12:30:34;98900.00;;;23.60
69590;BMP180;56792;50.644;17.984;2023-07-02T12:33:02;98905.00;;;23.70
69590;BMP180;56792;50.644;17.984;2023-07-02T12:35:30;98904.80;;;23.82
69590;BMP180;56792;50.644;17.984;2023-07-02T12:37:59;98900.20;;;23.92
69590;BMP180;56792;50.644;17.984;2023-07-02T12:40:27;98898.40;;;23.90
69590;BMP180;56792;50.644;17.984;2023-07-02T12:42:56;98893.80;;;24.08
69590;BMP180;56792;50.644;17.984;2023-07-02T12:45:24;98895.00;;;24.26
69590;BMP180;56792;50.644;17.984;2023-07-02T12:47:52;98888.00;;;24.40
69590;BMP180;56792;50.644;17.984;2023-07-02T12:50:21;98891.60;;;24.68
69590;BMP180;56792;50.644;17.984;2023-07-02T12:52:49;98886.60;;;24.98
69590;BMP180;56792;50.644;17.984;2023-07-02T12:55:17;98883.20;;;25.34
69590;BMP180;56792;50.644;17.984;2023-07-02T12:57:45;98889.40;;;25.70
69590;BMP180;56792;50.644;17.984;2023-07-02T13:00:15;98884.60;;;25.70
69590;BMP180;56792;50.644;17.984;2023-07-02T13:02:44;98881.00;;;25.60
69590;BMP180;56792;50.644;17.984;2023-07-02T13:05:14;98875.40;;;25.40
69590;BMP180;56792;50.644;17.984;2023-07-02T13:07:42;98883.80;;;25.54
69590;BMP180;56792;50.644;17.984;2023-07-02T13:10:11;98882.80;;;25.70
69590;BMP180;56792;50.644;17.984;2023-07-02T13:12:39;98889.60;;;25.80
69590;BMP180;56792;50.644;17.984;2023-07-02T13:15:10;98889.40;;;25.80
69590;BMP180;56792;50.644;17.984;2023-07-02T13:17:39;98890.80;;;25.80
69590;BMP180;56792;50.644;17.984;2023-07-02T13:20:10;98895.40;;;25.90
69590;BMP180;56792;50.644;17.984;2023-07-02T13:22:39;98899.80;;;25.92
69590;BMP180;56792;50.644;17.984;2023-07-02T13:25:09;98899.60;;;26.00
69590;BMP180;56792;50.644;17.984;2023-07-02T13:27:38;98905.00;;;26.10
69590;BMP180;56792;50.644;17.984;2023-07-02T13:30:09;98906.80;;;26.18
69590;BMP180;56792;50.644;17.984;2023-07-02T13:32:38;98901.00;;;26.30
69590;BMP180;56792;50.644;17.984;2023-07-02T13:35:07;98900.60;;;26.32
69590;BMP180;56792;50.644;17.984;2023-07-02T13:37:35;98898.80;;;26.40
69590;BMP180;56792;50.644;17.984;2023-07-02T13:40:06;98903.60;;;26.50
69590;BMP180;56792;50.644;17.984;2023-07-02T13:42:37;98908.00;;;26.50
69590;BMP180;56792;50.644;17.984;2023-07-02T13:45:08;98909.00;;;26.50
69590;BMP180;56792;50.644;17.984;2023-07-02T13:47:37;98904.80;;;26.50
69590;BMP180;56792;50.644;17.984;2023-07-02T13:50:07;98895.20;;;26.40
69590;BMP180;56792;50.644;17.984;2023-07-02T13:52:35;98898.40;;;26.30
69590;BMP180;56792;50.644;17.984;2023-07-02T13:55:05;98901.00;;;26.20
69590;BMP180;56792;50.644;17.984;2023-07-02T13:57:33;98902.60;;;26.24
69590;BMP180;56792;50.644;17.984;2023-07-02T14:00:02;98897.60;;;26.40
69590;BMP180;56792;50.644;17.984;2023-07-02T14:02:33;98907.60;;;26.44
69590;BMP180;56792;50.644;17.984;2023-07-02T14:05:01;98903.40;;;26.40
69590;BMP180;56792;50.644;17.984;2023-07-02T14:07:29;98906.40;;;26.50